createdAt,value
2018-03-16T00:00:41.717Z,98966.30
2018-03-16T00:03:10.150Z,98969.31
2018-03-16T00:05:38.717Z,98973.22
2018-03-16T00:08:06.623Z,98974.52
2018-03-16T00:10:35.645Z,98982.34
2018-03-16T00:13:04.519Z,98974.11
2018-03-16T00:15:32.414Z,98980.94
2018-03-16T00:18:00.707Z,98985.25
2018-03-16T00:20:28.571Z,98981.83
2018-03-16T00:22:56.569Z,98984.84
2018-03-16T00:25:24.447Z,98985.67
2018-03-16T00:27:52.701Z,98996.56
2018-03-16T00:30:19.815Z,98991.77
2018-03-16T00:32:46.925Z,98994.78
2018-03-16T00:35:14.032Z,99000.06
2018-03-16T00:37:41.129Z,98998.77
2018-03-16T00:40:08.625Z,99002.19
2018-03-16T00:42:36.512Z,98991.88
2018-03-16T00:45:04.686Z,98997.08
2018-03-16T00:47:31.808Z,98996.26
2018-03-16T00:49:59.025Z,99001.06
2018-03-16T00:52:26.926Z,99001.47
2018-03-16T00:54:54.434Z,98997.97
2018-03-16T00:57:22.317Z,98997.15
2018-03-16T00:59:50.562Z,98999.41
2018-03-16T01:02:19.337Z,99000.72
2018-03-16T01:04:47.213Z,98996.88
2018-03-16T01:07:15.121Z,98992.97
2018-03-16T01:09:42.613Z,98998.25
2018-03-16T01:12:10.862Z,98996.05
2018-03-16T01:14:39.096Z,99004.34
2018-03-16T01:17:06.994Z,98994.82
2018-03-16T01:19:34.532Z,98997.42
2018-03-16T01:22:01.643Z,98994.82
2018-03-16T01:24:28.755Z,98985.77
2018-03-16T01:26:56.627Z,98986.66
2018-03-16T01:29:25.382Z,98984.47
2018-03-16T01:31:52.490Z,98981.45
2018-03-16T01:34:21.284Z,98975.41
2018-03-16T01:36:48.394Z,98976.30
2018-03-16T01:39:15.526Z,98976.72
2018-03-16T01:41:43.021Z,98971.98
2018-03-16T01:44:10.919Z,98976.30
2018-03-16T01:46:39.166Z,98974.52
2018-03-16T01:49:07.437Z,98980.15
2018-03-16T01:51:34.578Z,98978.84
2018-03-16T01:54:02.605Z,98984.88
2018-03-16T01:56:29.714Z,98985.36
2018-03-16T01:58:56.832Z,98989.27
2018-03-16T02:01:23.946Z,98989.61
2018-03-16T02:03:52.729Z,98989.68
2018-03-16T02:06:20.231Z,98999.62
2018-03-16T02:08:47.342Z,98993.59
2018-03-16T02:11:14.846Z,98994.41
2018-03-16T02:13:43.112Z,98997.02
2018-03-16T02:16:10.237Z,99003.94
2018-03-16T02:18:37.393Z,99001.33
2018-03-16T02:21:04.850Z,99000.92
2018-03-16T02:23:32.713Z,99003.45
2018-03-16T02:26:00.982Z,99000.86
2018-03-16T02:28:28.090Z,98998.73
2018-03-16T02:30:55.250Z,99003.94
2018-03-16T02:33:22.376Z,99007.84
2018-03-16T02:35:49.510Z,99011.75
2018-03-16T02:38:16.632Z,99003.94
2018-03-16T02:40:44.532Z,99007.84
2018-03-16T02:43:12.394Z,99003.53
2018-03-16T02:45:40.296Z,99003.53
2018-03-16T02:48:07.521Z,99002.70
2018-03-16T02:50:35.423Z,99005.79
2018-03-16T02:53:02.784Z,99006.27
2018-03-16T02:55:30.687Z,99005.86
2018-03-16T02:57:58.180Z,98996.33
2018-03-16T03:00:25.331Z,99005.92
2018-03-16T03:02:52.458Z,99004.63
2018-03-16T03:05:20.706Z,99012.44
2018-03-16T03:07:47.831Z,99012.44
2018-03-16T03:10:14.925Z,99012.09
2018-03-16T03:12:42.822Z,99008.60
2018-03-16T03:15:09.924Z,99011.62
2018-03-16T03:17:37.509Z,99009.42
2018-03-16T03:20:04.618Z,99018.89
2018-03-16T03:22:32.514Z,99014.56
2018-03-16T03:25:00.377Z,99012.85
2018-03-16T03:27:27.511Z,99014.98
2018-03-16T03:29:55.391Z,99013.27
2018-03-16T03:32:22.527Z,99018.00
2018-03-16T03:34:49.649Z,99013.27
2018-03-16T03:37:17.550Z,99016.28
2018-03-16T03:39:45.054Z,99022.80
2018-03-16T03:42:12.177Z,99025.40
2018-03-16T03:44:40.818Z,99020.19
2018-03-16T03:47:08.715Z,99024.03
2018-03-16T03:49:35.822Z,99019.70
2018-03-16T03:52:03.201Z,99027.11
2018-03-16T03:54:31.833Z,99021.02
2018-03-16T03:57:00.128Z,99022.80
2018-03-16T03:59:27.228Z,99028.00
2018-03-16T04:01:54.716Z,99034.03
2018-03-16T04:04:21.832Z,99038.84
2018-03-16T04:06:48.929Z,99045.83
2018-03-16T04:09:16.077Z,99041.99
2018-03-16T04:11:44.690Z,99043.70
2018-03-16T04:14:12.548Z,99047.61
2018-03-16T04:16:40.046Z,99047.27
2018-03-16T04:19:07.173Z,99050.29
2018-03-16T04:21:35.064Z,99049.05
2018-03-16T04:24:03.299Z,99048.64
2018-03-16T04:26:30.400Z,99056.45
2018-03-16T04:28:58.286Z,99057.38
2018-03-16T04:31:25.409Z,99061.28
2018-03-16T04:33:52.905Z,99055.56
2018-03-16T04:36:20.000Z,99060.78
2018-03-16T04:38:47.861Z,99065.58
2018-03-16T04:41:14.980Z,99063.38
2018-03-16T04:43:42.845Z,99064.20
2018-03-16T04:46:10.719Z,99063.73
2018-03-16T04:48:37.892Z,99061.05
2018-03-16T04:51:05.187Z,99067.09
2018-03-16T04:53:32.673Z,99063.59
2018-03-16T04:56:00.548Z,99068.80
2018-03-16T04:58:27.654Z,99075.25
2018-03-16T05:00:54.769Z,99073.05
2018-03-16T05:03:22.642Z,99083.41
2018-03-16T05:05:50.894Z,99079.02
2018-03-16T05:08:17.999Z,99078.06
2018-03-16T05:10:45.124Z,99083.69
2018-03-16T05:13:13.384Z,99086.22
2018-03-16T05:15:41.265Z,99090.55
2018-03-16T05:18:08.778Z,99092.25
2018-03-16T05:20:36.640Z,99093.49
2018-03-16T05:23:04.991Z,99095.27
2018-03-16T05:25:32.480Z,99100.00
2018-03-16T05:28:01.252Z,99096.41
2018-03-16T05:30:28.773Z,99105.12
2018-03-16T05:32:57.391Z,99107.72
2018-03-16T05:35:25.296Z,99107.25
2018-03-16T05:37:53.543Z,99109.37
2018-03-16T05:40:20.691Z,99114.10
2018-03-16T05:42:49.453Z,99113.69
2018-03-16T05:45:16.568Z,99118.02
2018-03-16T05:47:43.693Z,99110.67
2018-03-16T05:50:11.212Z,99122.33
2018-03-16T05:52:38.325Z,99121.86
2018-03-16T05:55:07.081Z,99128.84
2018-03-16T05:57:34.197Z,99132.34
2018-03-16T06:00:01.306Z,99128.78
2018-03-16T06:02:29.173Z,99133.58
2018-03-16T06:04:56.269Z,99130.16
2018-03-16T06:07:23.378Z,99136.12
2018-03-16T06:09:50.486Z,99137.01
2018-03-16T06:12:19.098Z,99139.61
2018-03-16T06:14:46.606Z,99140.50
2018-03-16T06:17:15.241Z,99146.20
2018-03-16T06:19:43.998Z,99146.20
2018-03-16T06:22:11.124Z,99147.02
2018-03-16T06:24:38.616Z,99153.53
2018-03-16T06:27:06.909Z,99140.16
2018-03-16T06:29:34.787Z,99145.38
2018-03-16T06:32:03.212Z,99155.38
2018-03-16T06:34:30.333Z,99155.93
2018-03-16T06:36:58.234Z,99165.47
2018-03-16T06:39:25.741Z,99159.94
2018-03-16T06:41:52.890Z,99168.14
2018-03-16T06:44:20.753Z,99169.61
2018-03-16T06:46:48.627Z,99164.80
2018-03-16T06:49:15.739Z,99175.70
2018-03-16T06:51:43.596Z,99189.21
2018-03-16T06:54:10.703Z,99187.98
2018-03-16T06:56:38.950Z,99188.05
2018-03-16T06:59:06.845Z,99185.91
2018-03-16T07:01:35.592Z,99185.98
2018-03-16T07:04:03.073Z,99191.19
2018-03-16T07:06:30.197Z,99185.57
2018-03-16T07:08:58.797Z,99194.28
2018-03-16T07:11:27.056Z,99192.97
2018-03-16T07:13:54.195Z,99197.70
2018-03-16T07:16:21.302Z,99202.58
2018-03-16T07:18:48.835Z,99203.05
2018-03-16T07:21:16.710Z,99213.54
2018-03-16T07:23:44.257Z,99212.72
2018-03-16T07:26:11.371Z,99216.97
2018-03-16T07:28:38.901Z,99220.12
2018-03-16T07:31:06.004Z,99226.63
2018-03-16T07:33:33.137Z,99230.54
2018-03-16T07:36:00.248Z,99230.13
2018-03-16T07:38:28.123Z,99233.63
2018-03-16T07:40:55.220Z,99241.44
2018-03-16T07:43:23.992Z,99235.44
2018-03-16T07:45:57.087Z,99242.36
2018-03-16T07:48:25.702Z,99244.63
2018-03-16T07:50:55.118Z,99248.12
2018-03-16T07:53:23.009Z,99251.61
2018-03-16T07:55:50.900Z,99254.22
2018-03-16T07:58:18.461Z,99257.65
2018-03-16T08:00:45.598Z,99261.14
2018-03-16T08:03:13.475Z,99259.02
2018-03-16T08:05:40.650Z,99265.53
2018-03-16T08:08:08.856Z,99273.34
2018-03-16T08:10:37.652Z,99273.34
2018-03-16T08:13:04.781Z,99277.32
2018-03-16T08:15:33.055Z,99283.36
2018-03-16T08:18:00.153Z,99285.14
2018-03-16T08:20:28.036Z,99286.91
2018-03-16T08:22:56.014Z,99294.25
2018-03-16T08:25:23.933Z,99291.72
2018-03-16T08:27:52.690Z,99299.94
2018-03-16T08:30:21.481Z,99299.53
2018-03-16T08:32:48.590Z,99299.53
2018-03-16T08:35:15.737Z,99303.03
2018-03-16T08:37:42.859Z,99300.90
2018-03-16T08:40:11.614Z,99305.70
2018-03-16T08:42:40.365Z,99309.61
2018-03-16T08:45:07.885Z,99308.30
2018-03-16T08:47:35.020Z,99307.06
2018-03-16T08:50:03.244Z,99316.59
2018-03-16T08:52:30.387Z,99314.41
2018-03-16T08:54:57.498Z,99316.18
2018-03-16T08:57:25.771Z,99319.67
2018-03-16T08:59:52.868Z,99314.05
2018-03-16T09:02:20.753Z,99311.86
2018-03-16T09:04:48.626Z,99314.87
2018-03-16T09:07:16.898Z,99316.25
2018-03-16T09:09:44.246Z,99314.94
2018-03-16T09:12:11.751Z,99314.53
2018-03-16T09:14:38.901Z,99311.92
2018-03-16T09:17:06.039Z,99316.31
2018-03-16T09:19:33.147Z,99326.32
2018-03-16T09:22:01.805Z,99327.63
2018-03-16T09:24:29.683Z,99331.59
2018-03-16T09:26:56.822Z,99324.67
2018-03-16T09:29:23.950Z,99318.56
2018-03-16T09:31:51.816Z,99322.89
2018-03-16T09:34:18.993Z,99329.41
2018-03-16T09:36:47.614Z,99329.87
2018-03-16T09:39:15.505Z,99326.45
2018-03-16T09:41:43.740Z,99326.95
2018-03-16T09:44:10.851Z,99333.05
2018-03-16T09:46:38.007Z,99333.05
2018-03-16T09:49:05.529Z,99328.26
2018-03-16T09:51:33.427Z,99336.55
2018-03-16T09:54:01.763Z,99335.31
2018-03-16T09:56:28.873Z,99340.45
2018-03-16T09:58:57.115Z,99342.37
2018-03-16T10:01:24.226Z,99339.67
2018-03-16T10:03:51.730Z,99337.29
2018-03-16T10:06:19.616Z,99332.91
2018-03-16T10:08:47.852Z,99341.89
2018-03-16T10:11:16.113Z,99347.04
2018-03-16T10:13:43.262Z,99345.32
2018-03-16T10:16:10.389Z,99347.98
2018-03-16T10:18:38.297Z,99354.91
2018-03-16T10:21:05.818Z,99357.94
2018-03-16T10:23:32.938Z,99355.88
2018-03-16T10:26:01.688Z,99362.73
2018-03-16T10:28:29.190Z,99365.75
2018-03-16T10:30:57.083Z,99366.70
2018-03-16T10:33:24.952Z,99371.91
2018-03-16T10:35:52.062Z,99369.78
2018-03-16T10:38:20.321Z,99373.69
2018-03-16T10:40:48.200Z,99376.77
2018-03-16T10:43:16.065Z,99381.09
2018-03-16T10:45:43.178Z,99385.89
2018-03-16T10:48:10.287Z,99385.89
2018-03-16T10:50:37.402Z,99387.67
2018-03-16T10:53:04.724Z,99385.06
2018-03-16T10:55:31.830Z,99395.90
2018-03-16T10:57:58.943Z,99401.17
2018-03-16T11:03:39.434Z,99402.47
2018-03-16T11:06:07.357Z,99397.39
2018-03-16T11:08:34.559Z,99404.25
2018-03-16T11:11:02.665Z,99403.84
2018-03-16T11:13:30.547Z,99412.55
2018-03-16T11:15:57.669Z,99419.53
2018-03-16T11:18:25.268Z,99415.63
2018-03-16T11:20:53.179Z,99415.22
2018-03-16T11:23:20.305Z,99422.55
2018-03-16T11:25:48.556Z,99421.25
2018-03-16T11:28:15.679Z,99428.65
2018-03-16T11:30:43.351Z,99424.33
2018-03-16T11:33:10.464Z,99421.31
2018-03-16T11:35:37.970Z,99424.33
2018-03-16T11:38:06.228Z,99422.61
2018-03-16T11:40:33.343Z,99421.37
2018-03-16T11:43:01.748Z,99416.99
2018-03-16T11:45:28.866Z,99424.80
2018-03-16T11:47:56.749Z,99420.07
2018-03-16T11:50:24.269Z,99423.56
2018-03-16T11:52:51.402Z,99430.49
2018-03-16T11:55:18.500Z,99430.97
2018-03-16T11:57:45.620Z,99432.78
2018-03-16T12:00:12.726Z,99439.70
2018-03-16T12:02:39.844Z,99444.50
2018-03-16T12:05:06.951Z,99444.09
2018-03-16T12:07:34.106Z,99441.95
2018-03-16T12:10:01.208Z,99449.71
2018-03-16T12:12:28.753Z,99445.45
2018-03-16T12:14:55.882Z,99447.17
2018-03-16T12:17:23.009Z,99456.34
2018-03-16T12:19:50.886Z,99449.36
2018-03-16T12:22:19.126Z,99451.14
2018-03-16T12:24:46.221Z,99450.25
2018-03-16T12:27:13.695Z,99453.33
2018-03-16T12:29:40.829Z,99452.02
2018-03-16T12:32:07.932Z,99451.14
2018-03-16T12:34:36.191Z,99461.14
2018-03-16T12:37:03.542Z,99459.42
2018-03-16T12:39:30.679Z,99453.39
2018-03-16T12:41:57.795Z,99453.87
2018-03-16T12:44:26.051Z,99455.11
2018-03-16T12:46:53.158Z,99453.87
2018-03-16T12:49:21.059Z,99456.88
2018-03-16T12:51:48.166Z,99451.27
2018-03-16T12:54:15.316Z,99459.49
2018-03-16T12:56:42.448Z,99459.97
2018-03-16T12:59:09.583Z,99453.52
2018-03-16T13:01:37.104Z,99454.41
2018-03-16T13:04:04.644Z,99462.22
2018-03-16T13:06:31.785Z,99463.94
2018-03-16T13:08:58.908Z,99461.75
2018-03-16T13:11:27.155Z,99461.33
2018-03-16T13:13:55.081Z,99464.41
2018-03-16T13:16:22.188Z,99452.22
2018-03-16T13:18:50.062Z,99458.78
2018-03-16T13:21:17.958Z,99461.87
2018-03-16T13:23:45.056Z,99473.59
2018-03-16T13:26:12.225Z,99479.75
2018-03-16T13:28:39.329Z,99486.20
2018-03-16T13:31:07.325Z,99488.80
2018-03-16T13:33:34.442Z,99487.98
2018-03-16T13:36:01.594Z,99487.98
2018-03-16T13:38:28.703Z,99488.39
2018-03-16T13:40:55.865Z,99492.77
2018-03-16T13:43:24.115Z,99491.47
2018-03-16T13:45:51.241Z,99493.66
2018-03-16T13:48:18.351Z,99491.06
2018-03-16T13:50:45.878Z,99486.32
2018-03-16T13:53:14.630Z,99485.02
2018-03-16T13:55:42.160Z,99491.06
2018-03-16T13:58:10.090Z,99482.41
2018-03-16T14:00:38.006Z,99486.32
2018-03-16T14:03:05.108Z,99491.53
2018-03-16T14:05:32.229Z,99494.55
2018-03-16T14:08:00.106Z,99494.14
2018-03-16T14:10:27.997Z,99496.80
2018-03-16T14:12:55.114Z,99499.82
2018-03-16T14:15:22.988Z,99493.31
2018-03-16T14:17:50.099Z,99503.31
2018-03-16T14:20:17.988Z,99505.51
2018-03-16T14:22:45.860Z,99511.13
2018-03-16T14:25:14.097Z,99509.41
2018-03-16T14:27:41.222Z,99516.43
2018-03-16T14:30:08.330Z,99518.21
2018-03-16T14:32:35.834Z,99521.23
2018-03-16T14:35:03.592Z,99515.66
2018-03-16T14:37:30.692Z,99518.68
2018-03-16T14:39:57.799Z,99529.52
2018-03-16T14:42:25.678Z,99535.20
2018-03-16T14:44:53.554Z,99529.16
2018-03-16T14:47:21.865Z,99534.31
2018-03-16T14:49:48.997Z,99536.56
2018-03-16T14:52:17.771Z,99534.84
2018-03-16T14:54:44.884Z,99533.07
2018-03-16T14:57:12.797Z,99538.28
2018-03-16T14:59:40.299Z,99545.27
2018-03-16T15:02:07.455Z,99537.92
2018-03-16T15:04:34.581Z,99538.75
2018-03-16T15:07:01.800Z,99542.25
2018-03-16T15:09:29.326Z,99545.74
2018-03-16T15:11:57.576Z,99541.00
2018-03-16T15:14:25.823Z,99545.28
2018-03-16T15:16:52.953Z,99540.95
2018-03-16T15:19:20.830Z,99542.91
2018-03-16T15:21:47.996Z,99549.77
2018-03-16T15:24:15.456Z,99545.39
2018-03-16T15:26:43.703Z,99554.50
2018-03-16T15:29:11.827Z,99554.15
2018-03-16T15:31:39.765Z,99552.37
2018-03-16T15:34:07.376Z,99553.73
2018-03-16T15:36:34.491Z,99553.67
2018-03-16T15:39:01.652Z,99556.75
2018-03-16T15:41:30.256Z,99557.16
2018-03-16T15:43:57.362Z,99556.81
2018-03-16T15:46:24.486Z,99564.56
2018-03-16T15:48:51.797Z,99570.66
2018-03-16T15:51:19.303Z,99568.53
2018-03-16T15:53:47.903Z,99572.03
2018-03-16T15:56:16.859Z,99577.17
2018-03-16T15:58:45.374Z,99575.94
2018-03-16T16:01:13.476Z,99569.42
2018-03-16T16:03:42.247Z,99566.41
2018-03-16T16:06:11.261Z,99572.92
2018-03-16T16:08:40.604Z,99572.03
2018-03-16T16:11:12.114Z,99573.80
2018-03-16T16:13:51.772Z,99577.30
2018-03-16T16:16:20.291Z,99585.11
2018-03-16T16:18:47.853Z,99585.11
2018-03-16T16:21:15.883Z,99591.20
2018-03-16T16:23:44.244Z,99596.89
2018-03-16T16:26:12.195Z,99603.81
2018-03-16T16:28:42.088Z,99605.12
2018-03-16T16:31:10.132Z,99609.50
2018-03-16T16:33:37.727Z,99608.20
2018-03-16T16:36:05.603Z,99607.72
2018-03-16T16:38:33.885Z,99610.33
2018-03-16T16:41:01.851Z,99615.59
2018-03-16T16:43:31.071Z,99613.47
2018-03-16T16:45:58.843Z,99624.30
2018-03-16T16:48:26.933Z,99623.88
2018-03-16T16:50:54.677Z,99626.48
2018-03-16T16:53:22.214Z,99624.39
2018-03-16T16:55:50.644Z,99637.83
2018-03-16T16:58:19.050Z,99634.39
2018-03-16T17:00:46.729Z,99639.12
2018-03-16T17:03:14.286Z,99640.90
2018-03-16T17:05:42.143Z,99637.88
2018-03-16T17:08:10.473Z,99648.30
2018-03-16T17:10:39.480Z,99643.56
2018-03-16T17:13:07.638Z,99648.30
2018-03-16T17:15:35.958Z,99649.59
2018-03-16T17:18:03.733Z,99654.39
2018-03-16T17:20:32.545Z,99654.45
2018-03-16T17:23:01.383Z,99665.70
2018-03-16T17:25:28.723Z,99670.08
2018-03-16T17:27:56.563Z,99673.98
2018-03-16T17:30:25.565Z,99678.31
2018-03-16T17:32:54.777Z,99675.29
2018-03-16T17:35:23.784Z,99683.98
2018-03-16T17:37:52.953Z,99684.88
2018-03-16T17:40:20.471Z,99686.59
2018-03-16T17:42:48.351Z,99687.06
2018-03-16T17:45:15.467Z,99692.69
2018-03-16T17:47:44.244Z,99688.84
2018-03-16T17:50:11.362Z,99693.10
2018-03-16T17:52:40.135Z,99691.45
2018-03-16T17:55:07.251Z,99692.34
2018-03-16T17:57:34.348Z,99700.56
2018-03-16T18:00:01.756Z,99703.23
2018-03-16T18:02:29.001Z,99695.41
2018-03-16T18:04:56.893Z,99700.62
2018-03-16T18:07:25.513Z,99701.92
2018-03-16T18:09:53.011Z,99702.39
2018-03-16T18:12:20.156Z,99706.77
2018-03-16T18:14:47.280Z,99714.59
2018-03-16T18:17:15.197Z,99713.76
2018-03-16T18:19:42.324Z,99717.67
2018-03-16T18:22:09.868Z,99719.02
2018-03-16T18:24:37.375Z,99715.53
2018-03-16T18:27:04.959Z,99722.46
2018-03-16T18:29:32.420Z,99723.77
2018-03-16T18:31:59.615Z,99719.44
2018-03-16T18:34:27.491Z,99721.22
2018-03-16T18:36:54.632Z,99721.22
2018-03-16T18:39:21.733Z,99721.69
2018-03-16T18:41:48.930Z,99726.42
2018-03-16T18:44:17.676Z,99727.31
2018-03-16T18:46:44.793Z,99726.90
2018-03-16T18:49:12.294Z,99725.18
2018-03-16T18:51:39.437Z,99729.97
2018-03-16T18:54:08.836Z,99730.00
2018-03-16T18:56:37.489Z,99727.84
2018-03-16T18:59:04.820Z,99742.99
2018-03-16T19:01:31.983Z,99741.28
2018-03-16T19:03:59.119Z,99739.56
2018-03-16T19:06:26.511Z,99737.39
2018-03-16T19:08:53.781Z,99738.26
2018-03-16T19:11:21.755Z,99736.51
2018-03-16T19:13:50.197Z,99739.56
2018-03-16T19:16:18.743Z,99743.02
2018-03-16T19:18:46.214Z,99737.08
2018-03-16T19:21:14.711Z,99736.51
2018-03-16T19:23:43.600Z,99749.20
2018-03-16T19:26:12.002Z,99739.20
2018-03-16T19:28:40.670Z,99749.63
2018-03-16T19:31:08.400Z,99748.85
2018-03-16T19:33:36.310Z,99740.15
2018-03-16T19:36:04.440Z,99744.94
2018-03-16T19:38:32.619Z,99754.47
2018-03-16T19:41:00.713Z,99753.11
2018-03-16T19:43:29.287Z,99752.76
2018-03-16T19:45:59.338Z,99759.27
2018-03-16T19:48:27.313Z,99754.53
2018-03-16T19:50:54.791Z,99755.36
2018-03-16T19:53:22.674Z,99772.28
2018-03-16T19:55:51.028Z,99759.73
2018-03-16T19:58:19.454Z,99761.52
2018-03-16T20:00:48.558Z,99771.52
2018-03-16T20:03:18.586Z,99776.72
2018-03-16T20:05:48.793Z,99777.61
2018-03-16T20:08:17.426Z,99769.80
2018-03-16T20:10:47.195Z,99784.95
2018-03-16T20:13:16.690Z,99779.38
2018-03-16T20:15:45.525Z,99788.02
2018-03-16T20:18:14.452Z,99789.33
2018-03-16T20:20:44.805Z,99796.31
2018-03-16T20:23:14.478Z,99793.29
2018-03-16T20:25:44.453Z,99796.31
2018-03-16T20:28:12.941Z,99793.77
2018-03-16T20:30:41.833Z,99799.86
2018-03-16T20:33:11.351Z,99808.97
2018-03-16T20:35:40.816Z,99813.34
2018-03-16T20:38:10.811Z,99816.84
2018-03-16T20:40:38.387Z,99812.05
2018-03-16T20:43:06.441Z,99814.23
2018-03-16T20:45:34.671Z,99820.27
2018-03-16T20:48:02.615Z,99821.58
2018-03-16T20:50:30.681Z,99817.25
2018-03-16T20:52:58.293Z,99825.06
2018-03-16T20:55:27.198Z,99819.50
2018-03-16T20:57:55.376Z,99827.67
2018-03-16T21:00:23.197Z,99823.82
2018-03-16T21:02:51.449Z,99830.39
2018-03-16T21:05:19.149Z,99829.03
2018-03-16T21:07:49.025Z,99828.67
2018-03-16T21:10:19.080Z,99826.06
2018-03-16T21:12:47.066Z,99829.14
2018-03-16T21:15:15.558Z,99824.41
2018-03-16T21:17:44.577Z,99825.66
2018-03-16T21:20:12.462Z,99827.84
2018-03-16T21:22:39.622Z,99820.50
2018-03-16T21:25:06.975Z,99830.91
2018-03-16T21:27:34.436Z,99829.14
2018-03-16T21:30:02.336Z,99833.52
2018-03-16T21:32:29.518Z,99842.63
2018-03-16T21:34:57.728Z,99837.90
2018-03-16T21:37:25.680Z,99844.77
2018-03-16T21:39:54.460Z,99851.75
2018-03-16T21:42:22.524Z,99850.03
2018-03-16T21:44:49.900Z,99852.22
2018-03-16T21:47:17.057Z,99854.44
2018-03-16T21:49:44.618Z,99851.83
2018-03-16T21:52:13.261Z,99849.70
2018-03-16T21:54:42.007Z,99848.81
2018-03-16T21:57:09.549Z,99845.80
2018-03-16T21:59:37.807Z,99841.48
2018-03-16T22:02:06.582Z,99842.31
2018-03-16T22:04:33.738Z,99840.17
2018-03-16T22:07:01.622Z,99840.64
2018-03-16T22:09:29.890Z,99844.97
2018-03-16T22:11:58.496Z,99854.08
2018-03-16T22:14:26.366Z,99848.45
2018-03-16T22:16:53.863Z,99847.57
2018-03-16T22:19:22.473Z,99843.72
2018-03-16T22:21:49.573Z,99839.40
2018-03-16T22:24:16.673Z,99839.40
2018-03-16T22:26:45.439Z,99833.78
2018-03-16T22:29:14.192Z,99836.38
2018-03-16T22:31:41.857Z,99842.00
2018-03-16T22:34:09.741Z,99838.16
2018-03-16T22:36:36.868Z,99839.45
2018-03-16T22:39:04.200Z,99842.95
2018-03-16T22:41:31.728Z,99838.63
2018-03-16T22:44:00.475Z,99838.63
2018-03-16T22:46:28.365Z,99835.61
2018-03-16T22:48:56.597Z,99837.33
2018-03-16T22:51:24.485Z,99834.78
2018-03-16T22:53:51.581Z,99837.38
2018-03-16T22:56:18.721Z,99843.42
2018-03-16T22:58:46.585Z,99842.59
2018-03-16T23:01:14.476Z,99845.66
2018-03-16T23:03:42.346Z,99850.40
2018-03-16T23:06:09.469Z,99840.87
2018-03-16T23:08:36.565Z,99825.25
2018-03-16T23:11:04.312Z,99840.45
2018-03-16T23:13:32.185Z,99834.01
2018-03-16T23:15:59.308Z,99841.40
2018-03-16T23:18:26.409Z,99838.27
2018-03-16T23:20:53.533Z,99843.53
2018-03-16T23:23:20.637Z,99840.93
2018-03-16T23:25:48.533Z,99845.14
2018-03-16T23:28:16.025Z,99842.95
2018-03-16T23:30:43.890Z,99844.30
2018-03-16T23:33:12.501Z,99839.05
2018-03-16T23:35:41.081Z,99846.44
2018-03-16T23:38:09.402Z,99848.69
2018-03-16T23:40:37.265Z,99839.63
2018-03-16T23:43:04.761Z,99840.52
2018-03-16T23:45:31.865Z,99844.42
2018-03-16T23:47:58.965Z,99839.73
2018-03-16T23:50:27.338Z,99834.06
2018-03-16T23:52:54.588Z,99836.19
2018-03-16T23:55:22.453Z,99825.84
2018-03-16T23:57:49.548Z,99822.05
